createdAt,value
2019-03-30T00:00:00.962Z,99.90
2019-03-30T00:02:35.827Z,99.90
2019-03-30T00:05:10.753Z,99.90
2019-03-30T00:07:43.841Z,99.90
2019-03-30T00:10:36.183Z,99.90
2019-03-30T00:13:10.018Z,99.90
2019-03-30T00:15:42.654Z,99.90
2019-03-30T00:18:16.060Z,99.90
2019-03-30T00:20:49.831Z,99.90
2019-03-30T00:23:22.757Z,99.90
2019-03-30T00:25:56.355Z,99.90
2019-03-30T00:28:30.084Z,99.90
2019-03-30T00:31:21.254Z,99.90
2019-03-30T00:33:55.859Z,99.90
2019-03-30T00:36:32.245Z,99.90
2019-03-30T00:39:06.206Z,99.90
2019-03-30T00:41:40.392Z,99.90
2019-03-30T00:44:14.019Z,99.90
2019-03-30T00:46:47.203Z,99.90
2019-03-30T00:49:21.300Z,99.90
2019-03-30T00:51:54.697Z,99.90
2019-03-30T00:54:28.229Z,99.90
2019-03-30T00:57:00.721Z,99.90
2019-03-30T00:59:35.222Z,99.90
2019-03-30T01:02:07.720Z,99.90
2019-03-30T01:04:40.752Z,99.90
2019-03-30T01:07:13.228Z,99.90
2019-03-30T01:09:47.248Z,99.90
2019-03-30T01:12:19.809Z,99.90
2019-03-30T01:14:53.114Z,99.90
2019-03-30T01:17:26.331Z,99.90
2019-03-30T01:20:03.193Z,99.90
2019-03-30T01:22:33.856Z,99.90
2019-03-30T01:25:08.582Z,99.90
2019-03-30T01:27:41.376Z,99.90
2019-03-30T01:30:22.961Z,99.90
2019-03-30T01:32:49.174Z,99.90
2019-03-30T01:35:21.522Z,99.90
2019-03-30T01:37:54.173Z,99.90
2019-03-30T01:40:27.280Z,99.90
2019-03-30T01:42:59.830Z,99.90
2019-03-30T01:45:33.089Z,99.90
2019-03-30T01:48:05.133Z,99.90
2019-03-30T01:50:38.145Z,99.90
2019-03-30T01:53:12.521Z,99.90
2019-03-30T01:55:48.449Z,99.90
2019-03-30T01:58:21.098Z,99.90
2019-03-30T02:00:53.635Z,99.90
2019-03-30T02:03:25.702Z,99.90
2019-03-30T02:05:58.924Z,99.90
2019-03-30T02:08:33.230Z,99.90
2019-03-30T02:11:05.893Z,99.90
2019-03-30T02:13:37.931Z,99.90
2019-03-30T02:16:10.028Z,99.90
2019-03-30T02:18:42.491Z,99.90
2019-03-30T02:21:15.164Z,99.90
2019-03-30T02:23:47.201Z,99.90
2019-03-30T02:26:19.813Z,99.90
2019-03-30T02:28:52.860Z,99.90
2019-03-30T02:31:26.408Z,99.90
2019-03-30T02:33:58.433Z,99.90
2019-03-30T02:36:31.473Z,99.90
2019-03-30T02:39:04.456Z,99.90
2019-03-30T02:41:37.555Z,99.90
2019-03-30T02:44:10.313Z,99.90
2019-03-30T02:46:43.720Z,99.90
2019-03-30T02:49:16.177Z,99.90
2019-03-30T02:51:49.280Z,99.90
2019-03-30T02:54:22.555Z,99.90
2019-03-30T02:56:55.156Z,99.90
2019-03-30T02:59:27.210Z,99.90
2019-03-30T03:01:59.803Z,99.90
2019-03-30T03:04:32.440Z,99.90
2019-03-30T03:07:04.712Z,99.90
2019-03-30T03:09:38.483Z,99.90
2019-03-30T03:12:10.589Z,99.90
2019-03-30T03:14:43.088Z,99.90
2019-03-30T03:17:15.973Z,99.90
2019-03-30T03:19:48.516Z,99.90
2019-03-30T03:22:21.196Z,99.90
2019-03-30T03:24:53.226Z,99.90
2019-03-30T03:27:25.732Z,99.90
2019-03-30T03:29:59.455Z,99.90
2019-03-30T03:32:32.261Z,99.90
2019-03-30T03:35:05.097Z,99.90
2019-03-30T03:37:45.289Z,99.90
2019-03-30T03:40:14.091Z,99.90
2019-03-30T03:42:46.806Z,99.90
2019-03-30T03:45:18.857Z,99.90
2019-03-30T03:47:52.334Z,99.90
2019-03-30T03:50:57.061Z,99.90
2019-03-30T03:53:30.665Z,99.90
2019-03-30T03:56:05.380Z,99.90
2019-03-30T03:58:40.894Z,99.90
2019-03-30T04:01:13.344Z,99.90
2019-03-30T04:03:47.650Z,99.90
2019-03-30T04:06:20.885Z,99.90
2019-03-30T04:08:55.546Z,99.90
2019-03-30T04:11:31.930Z,99.90
2019-03-30T04:14:06.793Z,99.90
2019-03-30T04:16:38.958Z,99.90
2019-03-30T04:19:12.003Z,99.90
2019-03-30T04:21:45.053Z,99.90
2019-03-30T04:24:19.270Z,99.90
2019-03-30T04:26:51.758Z,99.90
2019-03-30T04:29:24.379Z,99.90
2019-03-30T04:31:57.693Z,99.90
2019-03-30T04:34:30.743Z,99.90
2019-03-30T04:37:03.233Z,99.90
2019-03-30T04:39:37.268Z,99.90
2019-03-30T04:42:10.625Z,99.90
2019-03-30T04:44:44.810Z,99.90
2019-03-30T04:47:17.432Z,99.90
2019-03-30T04:49:50.730Z,99.90
2019-03-30T04:52:24.742Z,99.90
2019-03-30T04:54:57.664Z,99.90
2019-03-30T04:57:32.536Z,99.90
2019-03-30T05:00:05.763Z,99.90
2019-03-30T05:02:39.464Z,99.90
2019-03-30T05:05:12.919Z,99.90
2019-03-30T05:07:45.410Z,99.90
2019-03-30T05:10:19.464Z,99.90
2019-03-30T05:12:53.893Z,99.90
2019-03-30T05:15:28.432Z,99.90
2019-03-30T05:18:02.375Z,99.90
2019-03-30T05:20:36.742Z,99.90
2019-03-30T05:23:09.980Z,99.90
2019-03-30T05:25:42.516Z,99.90
2019-03-30T05:28:16.820Z,99.80
2019-03-30T05:30:51.980Z,99.50
2019-03-30T05:33:26.684Z,97.20
2019-03-30T05:36:00.288Z,92.30
2019-03-30T05:38:34.152Z,90.70
2019-03-30T05:41:07.272Z,92.30
2019-03-30T05:43:39.896Z,90.60
2019-03-30T05:46:12.841Z,91.30
2019-03-30T05:48:46.954Z,86.90
2019-03-30T05:51:22.030Z,79.80
2019-03-30T05:53:56.275Z,79.70
2019-03-30T05:56:30.136Z,78.30
2019-03-30T05:59:05.247Z,78.50
2019-03-30T06:01:40.973Z,77.80
2019-03-30T06:04:15.270Z,79.20
2019-03-30T06:06:48.855Z,75.70
2019-03-30T06:09:23.687Z,76.70
2019-03-30T06:11:58.544Z,75.10
2019-03-30T06:14:31.773Z,74.10
2019-03-30T06:17:06.796Z,69.80
2019-03-30T06:19:40.156Z,66.20
2019-03-30T06:22:14.136Z,62.80
2019-03-30T06:24:48.352Z,66.00
2019-03-30T06:27:22.613Z,65.20
2019-03-30T06:30:17.637Z,65.60
2019-03-30T06:33:00.688Z,65.20
2019-03-30T06:35:33.672Z,62.00
2019-03-30T06:38:07.043Z,63.50
2019-03-30T06:40:40.676Z,65.80
2019-03-30T06:43:14.321Z,61.60
2019-03-30T06:45:47.482Z,61.80
2019-03-30T06:48:21.860Z,61.30
2019-03-30T06:50:55.363Z,60.20
2019-03-30T06:53:29.127Z,61.40
2019-03-30T06:56:03.867Z,60.30
2019-03-30T06:58:38.752Z,59.90
2019-03-30T07:01:16.086Z,58.70
2019-03-30T07:03:50.257Z,59.10
2019-03-30T07:06:26.754Z,57.70
2019-03-30T07:09:05.293Z,56.50
2019-03-30T07:11:42.996Z,57.20
2019-03-30T07:14:17.945Z,55.60
2019-03-30T07:16:54.249Z,55.40
2019-03-30T07:19:31.639Z,54.60
2019-03-30T07:22:04.106Z,52.80
2019-03-30T07:24:39.051Z,52.50
2019-03-30T07:27:14.279Z,51.60
2019-03-30T07:29:48.004Z,51.80
2019-03-30T07:32:21.323Z,51.70
2019-03-30T07:34:55.364Z,51.50
2019-03-30T07:37:29.028Z,51.20
2019-03-30T07:40:03.693Z,52.40
2019-03-30T07:42:36.759Z,51.50
2019-03-30T07:45:11.747Z,51.40
2019-03-30T07:47:46.698Z,51.10
2019-03-30T07:50:20.574Z,49.90
2019-03-30T07:52:53.408Z,50.70
2019-03-30T07:55:27.008Z,48.20
2019-03-30T07:58:00.898Z,48.00
2019-03-30T08:00:35.200Z,47.70
2019-03-30T08:03:10.661Z,48.60
2019-03-30T08:05:48.355Z,49.40
2019-03-30T08:08:25.764Z,46.80
2019-03-30T08:11:02.371Z,47.10
2019-03-30T08:13:36.809Z,47.10
2019-03-30T08:16:10.730Z,45.70
2019-03-30T08:18:44.277Z,46.20
2019-03-30T08:21:18.609Z,46.00
2019-03-30T08:23:52.088Z,43.60
2019-03-30T08:26:26.204Z,43.00
2019-03-30T08:29:00.375Z,44.80
2019-03-30T08:31:36.576Z,44.90
2019-03-30T08:34:11.954Z,42.90
2019-03-30T08:36:48.543Z,43.70
2019-03-30T08:39:23.920Z,43.50
2019-03-30T08:42:00.005Z,43.80
2019-03-30T08:44:35.388Z,43.40
2019-03-30T08:47:08.452Z,43.50
2019-03-30T08:49:42.285Z,43.70
2019-03-30T08:52:17.308Z,44.00
2019-03-30T08:54:50.416Z,44.30
2019-03-30T08:57:24.574Z,43.70
2019-03-30T08:59:58.352Z,45.50
2019-03-30T09:02:34.983Z,42.90
2019-03-30T09:05:09.216Z,43.20
2019-03-30T09:07:43.590Z,43.70
2019-03-30T09:10:16.506Z,45.00
2019-03-30T09:12:52.361Z,42.50
2019-03-30T09:15:27.232Z,42.80
2019-03-30T09:18:00.836Z,43.20
2019-03-30T09:20:33.338Z,42.90
2019-03-30T09:23:08.620Z,41.20
2019-03-30T09:25:43.173Z,42.10
2019-03-30T09:28:16.770Z,41.70
2019-03-30T09:30:52.264Z,41.60
2019-03-30T09:33:26.879Z,40.20
2019-03-30T09:36:00.983Z,42.70
2019-03-30T09:38:35.393Z,40.20
2019-03-30T09:41:08.135Z,40.10
2019-03-30T09:43:44.326Z,40.60
2019-03-30T09:46:18.815Z,40.20
2019-03-30T09:49:01.930Z,39.80
2019-03-30T09:51:37.283Z,40.60
2019-03-30T09:54:23.177Z,38.20
2019-03-30T09:56:47.550Z,39.20
2019-03-30T09:59:20.400Z,39.40
2019-03-30T10:01:54.435Z,38.30
2019-03-30T10:04:29.669Z,38.60
2019-03-30T10:07:03.492Z,38.50
2019-03-30T10:09:36.865Z,39.60
2019-03-30T10:12:12.394Z,39.80
2019-03-30T10:14:48.389Z,39.40
2019-03-30T10:17:23.944Z,38.80
2019-03-30T10:20:04.345Z,39.60
2019-03-30T10:22:36.805Z,39.00
2019-03-30T10:25:09.795Z,38.30
2019-03-30T10:27:44.609Z,37.30
2019-03-30T10:30:18.336Z,38.30
2019-03-30T10:32:52.273Z,40.70
2019-03-30T10:35:25.352Z,39.10
2019-03-30T10:37:59.251Z,38.80
2019-03-30T10:40:35.505Z,37.90
2019-03-30T10:43:08.473Z,38.00
2019-03-30T10:45:42.368Z,39.40
2019-03-30T10:48:17.860Z,39.30
2019-03-30T10:50:51.608Z,41.40
2019-03-30T10:53:27.680Z,41.20
2019-03-30T10:56:01.949Z,40.10
2019-03-30T10:58:36.800Z,39.50
2019-03-30T11:01:10.919Z,37.80
2019-03-30T11:03:45.184Z,38.90
2019-03-30T11:06:18.853Z,38.30
2019-03-30T11:08:53.076Z,41.40
2019-03-30T11:11:27.039Z,39.30
2019-03-30T11:13:59.864Z,39.70
2019-03-30T11:16:35.640Z,38.70
2019-03-30T11:19:12.305Z,40.40
2019-03-30T11:21:49.354Z,40.70
2019-03-30T11:24:26.613Z,40.40
2019-03-30T11:27:00.487Z,41.20
2019-03-30T11:29:38.048Z,39.50
2019-03-30T11:32:14.121Z,39.50
2019-03-30T11:34:48.225Z,41.90
2019-03-30T11:37:21.745Z,45.30
2019-03-30T11:39:55.789Z,45.30
2019-03-30T11:42:29.788Z,44.40
2019-03-30T11:45:10.822Z,46.60
2019-03-30T11:47:44.284Z,45.10
2019-03-30T11:50:20.093Z,44.90
2019-03-30T11:52:54.726Z,46.50
2019-03-30T11:55:29.298Z,47.70
2019-03-30T11:58:03.468Z,49.10
2019-03-30T12:00:37.471Z,48.10
2019-03-30T12:03:11.645Z,48.80
2019-03-30T12:05:47.090Z,49.40
2019-03-30T12:08:21.515Z,50.10
2019-03-30T12:10:58.311Z,49.90
2019-03-30T12:13:33.604Z,50.90
2019-03-30T12:16:07.931Z,50.10
2019-03-30T12:18:41.727Z,50.20
2019-03-30T12:21:16.710Z,49.20
2019-03-30T12:23:53.492Z,49.00
2019-03-30T12:26:27.138Z,50.60
2019-03-30T12:29:03.266Z,50.50
2019-03-30T12:31:40.156Z,48.70
2019-03-30T12:34:13.832Z,48.10
2019-03-30T12:36:47.599Z,48.70
2019-03-30T12:39:22.208Z,49.50
2019-03-30T12:41:56.327Z,50.70
2019-03-30T12:44:34.925Z,51.80
2019-03-30T12:47:10.520Z,51.00
2019-03-30T12:49:55.345Z,51.50
2019-03-30T12:52:30.473Z,52.00
2019-03-30T12:55:06.452Z,50.30
2019-03-30T12:57:53.598Z,50.80
2019-03-30T13:00:28.868Z,50.40
2019-03-30T13:03:05.829Z,51.80
2019-03-30T13:05:42.849Z,51.20
2019-03-30T13:08:17.548Z,51.80
2019-03-30T13:10:57.836Z,50.90
2019-03-30T13:13:45.538Z,51.40
2019-03-30T13:16:19.713Z,52.20
2019-03-30T13:19:00.577Z,52.90
2019-03-30T13:21:35.620Z,53.30
2019-03-30T13:24:10.618Z,53.60
2019-03-30T13:27:13.434Z,54.40
2019-03-30T13:30:00.407Z,54.70
2019-03-30T13:32:39.265Z,54.60
2019-03-30T13:35:17.859Z,54.10
2019-03-30T13:37:51.704Z,54.60
2019-03-30T13:40:27.159Z,55.40
2019-03-30T13:43:02.980Z,55.30
2019-03-30T13:45:38.522Z,55.40
2019-03-30T13:48:12.295Z,55.50
2019-03-30T13:50:47.712Z,56.30
2019-03-30T13:53:24.205Z,56.90
2019-03-30T13:56:01.473Z,57.20
2019-03-30T13:58:36.686Z,57.40
2019-03-30T14:01:13.711Z,59.00
2019-03-30T14:03:49.391Z,58.40
2019-03-30T14:06:27.950Z,58.20
2019-03-30T14:09:06.693Z,59.90
2019-03-30T14:11:44.877Z,60.00
2019-03-30T14:14:21.706Z,60.50
2019-03-30T14:16:56.487Z,60.60
2019-03-30T14:19:41.060Z,61.30
2019-03-30T14:22:17.401Z,62.60
2019-03-30T14:24:51.820Z,63.50
2019-03-30T14:27:26.979Z,65.30
2019-03-30T14:30:02.208Z,66.90
2019-03-30T14:32:35.887Z,66.90
2019-03-30T14:35:10.475Z,68.70
2019-03-30T14:37:46.750Z,69.00
2019-03-30T14:40:20.806Z,71.40
2019-03-30T14:42:58.759Z,70.40
2019-03-30T14:45:33.676Z,72.80
2019-03-30T14:48:09.821Z,73.70
2019-03-30T14:50:44.967Z,73.20
2019-03-30T14:53:21.284Z,73.60
2019-03-30T14:55:54.896Z,74.40
2019-03-30T14:58:29.533Z,74.70
2019-03-30T15:01:03.355Z,77.50
2019-03-30T15:03:39.236Z,78.60
2019-03-30T15:06:14.350Z,78.90
2019-03-30T15:08:48.603Z,79.40
2019-03-30T15:11:21.960Z,81.00
2019-03-30T15:13:55.667Z,82.30
2019-03-30T15:16:28.270Z,84.30
2019-03-30T15:19:01.722Z,84.20
2019-03-30T15:21:34.717Z,88.10
2019-03-30T15:24:08.036Z,90.90
2019-03-30T15:26:41.068Z,90.20
2019-03-30T15:29:16.384Z,90.40
2019-03-30T15:31:50.820Z,91.50
2019-03-30T15:34:25.120Z,92.70
2019-03-30T15:36:59.799Z,94.80
2019-03-30T15:39:33.893Z,96.30
2019-03-30T15:42:09.121Z,96.80
2019-03-30T15:44:45.034Z,98.10
2019-03-30T15:47:19.428Z,99.20
2019-03-30T15:49:54.725Z,99.90
2019-03-30T15:52:29.786Z,99.90
2019-03-30T15:55:03.365Z,99.90
2019-03-30T15:57:38.720Z,99.90
2019-03-30T16:00:15.688Z,99.90
2019-03-30T16:02:49.568Z,99.90
2019-03-30T16:05:24.487Z,99.90
2019-03-30T16:07:59.751Z,99.90
2019-03-30T16:10:34.991Z,99.90
2019-03-30T16:13:08.524Z,99.90
2019-03-30T16:15:44.573Z,99.90
2019-03-30T16:18:20.261Z,99.90
2019-03-30T16:20:52.800Z,99.90
2019-03-30T16:23:27.867Z,99.90
2019-03-30T16:26:01.475Z,99.90
2019-03-30T16:28:35.115Z,99.90
2019-03-30T16:31:08.077Z,99.90
2019-03-30T16:33:41.497Z,99.90
2019-03-30T16:36:15.749Z,99.90
2019-03-30T16:38:49.227Z,99.90
2019-03-30T16:41:21.928Z,99.90
2019-03-30T16:43:58.218Z,99.90
2019-03-30T16:46:32.461Z,99.90
2019-03-30T16:49:05.799Z,99.90
2019-03-30T16:51:40.149Z,99.90
2019-03-30T16:54:13.262Z,99.90
2019-03-30T16:56:56.444Z,99.90
2019-03-30T16:59:30.873Z,99.90
2019-03-30T17:02:04.768Z,99.90
2019-03-30T17:04:39.791Z,99.90
2019-03-30T17:07:15.483Z,99.90
2019-03-30T17:09:50.052Z,99.90
2019-03-30T17:12:24.169Z,99.90
2019-03-30T17:14:59.412Z,99.90
2019-03-30T17:17:37.138Z,99.90
2019-03-30T17:20:13.799Z,99.90
2019-03-30T17:22:46.709Z,99.90
2019-03-30T17:25:21.441Z,99.90
2019-03-30T17:27:58.618Z,99.90
2019-03-30T17:30:30.401Z,99.90
2019-03-30T17:33:03.369Z,99.90
2019-03-30T17:35:36.547Z,99.90
2019-03-30T17:38:09.775Z,99.90
2019-03-30T17:40:42.803Z,99.90
2019-03-30T17:43:17.100Z,99.90
2019-03-30T17:45:49.208Z,99.90
2019-03-30T17:48:23.516Z,99.90
2019-03-30T17:50:58.622Z,99.90
2019-03-30T17:53:33.376Z,99.90
2019-03-30T17:56:07.215Z,99.90
2019-03-30T17:58:40.201Z,99.90
2019-03-30T18:01:15.950Z,99.90
2019-03-30T18:03:50.377Z,99.90
2019-03-30T18:06:24.548Z,99.90
2019-03-30T18:08:58.296Z,99.90
2019-03-30T18:11:32.992Z,99.90
2019-03-30T18:14:08.046Z,99.90
2019-03-30T18:16:41.174Z,99.90
2019-03-30T18:19:14.513Z,99.90
2019-03-30T18:21:50.660Z,99.90
2019-03-30T18:24:24.019Z,99.90
2019-03-30T18:26:59.313Z,99.90
2019-03-30T18:29:32.753Z,99.90
2019-03-30T18:32:08.073Z,99.90
2019-03-30T18:34:45.096Z,99.90
2019-03-30T18:37:20.760Z,99.90
2019-03-30T18:39:57.137Z,99.90
2019-03-30T18:42:32.246Z,99.90
2019-03-30T18:45:07.704Z,99.90
2019-03-30T18:47:41.639Z,99.90
2019-03-30T18:50:15.455Z,99.90
2019-03-30T18:52:48.716Z,99.90
2019-03-30T18:55:25.749Z,99.90
2019-03-30T18:58:01.348Z,99.90
2019-03-30T19:00:35.276Z,99.90
2019-03-30T19:03:08.752Z,99.90
2019-03-30T19:05:41.255Z,99.90
2019-03-30T19:08:15.876Z,99.90
2019-03-30T19:10:49.440Z,99.90
2019-03-30T19:13:23.164Z,99.90
2019-03-30T19:15:57.353Z,99.90
2019-03-30T19:18:32.293Z,99.90
2019-03-30T19:21:05.644Z,99.90
2019-03-30T19:23:40.638Z,99.90
2019-03-30T19:26:15.926Z,99.90
2019-03-30T19:28:56.447Z,99.90
2019-03-30T19:31:26.455Z,99.90
2019-03-30T19:34:03.971Z,99.90
2019-03-30T19:36:39.762Z,99.90
2019-03-30T19:39:13.395Z,99.90
2019-03-30T19:41:48.365Z,99.90
2019-03-30T19:44:23.805Z,99.90
2019-03-30T19:46:59.431Z,99.90
2019-03-30T19:49:36.001Z,99.90
2019-03-30T19:52:18.890Z,99.90
2019-03-30T19:54:52.927Z,99.90
2019-03-30T19:57:27.978Z,99.90
2019-03-30T20:00:02.391Z,99.90
2019-03-30T20:02:37.505Z,99.90
2019-03-30T20:05:12.297Z,99.90
2019-03-30T20:07:45.583Z,99.90
2019-03-30T20:10:21.802Z,99.90
2019-03-30T20:12:57.157Z,99.90
2019-03-30T20:15:31.756Z,99.90
2019-03-30T20:18:05.564Z,99.90
2019-03-30T20:20:39.888Z,99.90
2019-03-30T20:23:15.250Z,99.90
2019-03-30T20:25:50.188Z,99.90
2019-03-30T20:28:23.869Z,99.90
2019-03-30T20:31:14.908Z,99.90
2019-03-30T20:33:48.648Z,99.90
2019-03-30T20:36:22.391Z,99.90
2019-03-30T20:38:56.873Z,99.90
2019-03-30T20:41:30.389Z,99.90
2019-03-30T20:44:03.683Z,99.90
2019-03-30T20:46:38.890Z,99.90
2019-03-30T20:49:14.006Z,99.90
2019-03-30T20:51:46.558Z,99.90
2019-03-30T20:54:39.004Z,99.90
2019-03-30T20:57:12.821Z,99.90
2019-03-30T20:59:46.624Z,99.90
2019-03-30T21:02:19.593Z,99.90
2019-03-30T21:05:12.288Z,99.90
2019-03-30T21:07:47.621Z,99.90
2019-03-30T21:10:22.336Z,99.90
2019-03-30T21:12:57.385Z,99.90
2019-03-30T21:15:31.939Z,99.90
2019-03-30T21:18:05.843Z,99.90
2019-03-30T21:20:39.915Z,99.90
2019-03-30T21:23:16.808Z,99.90
2019-03-30T21:25:52.063Z,99.90
2019-03-30T21:28:27.622Z,99.90
2019-03-30T21:31:02.616Z,99.90
2019-03-30T21:33:36.370Z,99.90
2019-03-30T21:36:10.024Z,99.90
2019-03-30T21:38:42.152Z,99.90
2019-03-30T21:41:16.131Z,99.90
2019-03-30T21:43:52.735Z,99.90
2019-03-30T21:46:26.717Z,99.90
2019-03-30T21:49:00.999Z,99.90
2019-03-30T21:51:35.316Z,99.90
2019-03-30T21:54:09.531Z,99.90
2019-03-30T21:56:42.892Z,99.90
2019-03-30T21:59:17.060Z,99.90
2019-03-30T22:01:53.447Z,99.90
2019-03-30T22:04:27.932Z,99.90
2019-03-30T22:07:01.422Z,99.90
2019-03-30T22:09:35.951Z,99.90
2019-03-30T22:12:09.948Z,99.90
2019-03-30T22:14:53.176Z,99.90
2019-03-30T22:17:26.997Z,99.90
2019-03-30T22:20:00.451Z,99.90
2019-03-30T22:22:34.447Z,99.90
2019-03-30T22:25:07.748Z,99.90
2019-03-30T22:27:41.918Z,99.90
2019-03-30T22:30:24.565Z,99.90
2019-03-30T22:32:50.705Z,99.90
2019-03-30T22:35:23.351Z,99.90
2019-03-30T22:37:58.745Z,99.90
2019-03-30T22:40:32.906Z,99.90
2019-03-30T22:43:06.861Z,99.90
2019-03-30T22:45:40.919Z,99.90
2019-03-30T22:48:17.192Z,99.90
2019-03-30T22:50:52.619Z,99.90
2019-03-30T22:53:25.561Z,99.90
2019-03-30T22:55:59.624Z,99.90
2019-03-30T22:58:33.126Z,99.90
2019-03-30T23:01:09.223Z,99.90
2019-03-30T23:03:46.292Z,99.90
2019-03-30T23:06:20.654Z,99.90
2019-03-30T23:08:53.785Z,99.90
2019-03-30T23:11:27.895Z,99.90
2019-03-30T23:14:01.764Z,99.90
2019-03-30T23:16:36.011Z,99.90
2019-03-30T23:19:09.688Z,99.90
2019-03-30T23:21:43.664Z,99.90
2019-03-30T23:24:16.651Z,99.90
2019-03-30T23:26:50.712Z,99.90
2019-03-30T23:29:25.062Z,99.90
2019-03-30T23:32:00.426Z,99.90
2019-03-30T23:34:35.355Z,99.90
2019-03-30T23:37:26.317Z,99.90
2019-03-30T23:39:59.906Z,99.90
2019-03-30T23:42:34.021Z,99.90
2019-03-30T23:45:09.704Z,99.90
2019-03-30T23:47:42.951Z,99.90
2019-03-30T23:50:26.437Z,99.90
2019-03-30T23:52:59.340Z,99.90
2019-03-30T23:55:31.952Z,99.90
2019-03-30T23:58:05.619Z,99.90
